Terminal Aerodrome Forecast
Issued by NWS Mt. Holly, NJ

Home | Current Version | Previous Version | Text Only | Print | Product List | Glossary On
Versions: 1 2 3 4 5 6 7 8 9 10 11 12 13 14 15 16 17 18 19 20 21 22 23 24 25 26 27 28 29 30 31 32 33 34 35 36 37 38 39 40 41 42 43 44 45 46
581
FTAK31 PANC 242110 AAB
TAFABE
TAF AMD
PABE 242110Z 2421/2518 27012KT P6SM VCSH SCT030 BKN060
     FM250000 29010KT P6SM VCSH SCT015 BKN027
     FM250600 34008KT P6SM SCT020
     FM251200 02004KT 3SM BR BKN004
     FM251700 05008KT P6SM SCT040 OVC100=

USA.gov is the U.S. government's official web portal to all federal, state and local government web resources and services.